Data for 05/26/2016

Time Sea-Level Adjusted Pressure Absolute Pressure Temperature Relative Humidity Dew Point   
(mb) (inHg) (mb) (inHg) (C) (F) (%) (C) (F)
00:05 1018 30.06 847 25.01 10.2 50.3 57 2.1 35.8
00:10 1018 30.06 847 25.01 10.1 50.1 57 2 35.7
00:15 1018 30.06 847 25.01 10.1 50.3 56 1.8 35.2
00:20 1018 30.06 847 25.01 10.4 50.6 55 1.6 35
00:25 1018 30.06 847 25.01 10.5 50.9 54 1.7 35
00:30 1018 30.06 847 25.01 10.5 50.9 55 1.8 35.2
00:35 1018 30.06 847 25.01 10.4 50.8 55 1.7 35.1
00:40 1017 30.03 847 25.01 10.3 50.5 55 1.7 35
00:45 1017 30.03 847 25.01 10.2 50.4 55 1.8 35.2
00:50 1017 30.03 847 25.01 10.3 50.5 55 1.6 34.9
00:55 1018 30.06 847 25.01 10.4 50.6 55 1.6 34.9
01:00 1018 30.06 847 25.01 10.4 50.7 54 1.6 34.8
01:05 1018 30.06 847 25.01 10.4 50.7 54 1.5 34.8
01:10 1018 30.06 847 25.01 10.4 50.6 55 1.7 35
01:15 1018 30.06 847 25.01 10.3 50.6 54 1.6 34.8
01:20 1018 30.06 847 25.01 10.4 50.7 54 1.5 34.7
01:25 1018 30.06 847 25.01 10.4 50.7 54 1.6 34.8
01:30 1018 30.06 847 25.01 10.3 50.6 54 1.6 34.9
01:35 1018 30.06 847 25.01 10.3 50.5 56 1.8 35.3
01:40 1018 30.06 847 25.01 10.3 50.5 56 1.8 35.3
01:45 1018 30.06 847 25.01 10.2 50.4 55 1.7 35.1
01:50 1018 30.06 847 25.01 10.2 50.4 55 1.7 35.1
01:55 1018 30.06 847 25.01 10.1 50.2 56 1.7 35
02:00 1018 30.06 847 25.01 10.1 50.1 55 1.6 34.8
02:05 1018 30.06 847 25.01 10 50.1 56 1.6 34.9
02:10 1018 30.06 847 25.01 10 49.9 57 1.8 35.3
02:15 1018 30.06 847 25.01 9.8 49.7 57 1.7 35.1
02:20 1018 30.06 847 25.01 9.7 49.5 57 1.6 34.9
02:25 1018 30.06 847 25.01 9.6 49.3 57 1.5 34.8
02:30 1018 30.06 847 25.01 9.5 49 59 1.9 35.4
02:35 1018 30.06 847 25.01 9.2 48.6 59 1.7 35
02:40 1018 30.06 847 25.01 9.3 48.7 57 1.2 34.2
02:45 1018 30.06 847 25.01 9.5 49 56 1.1 33.9
02:50 1018 30.06 847 25.01 9.7 49.4 56 1.3 34.4
02:55 1018 30.06 847 25.01 9.8 49.6 55 1.3 34.4
03:00 1018 30.06 847 25.01 9.7 49.5 56 1.4 34.6
03:05 1018 30.06 847 25.01 9.7 49.5 57 1.5 34.8
03:10 1018 30.06 847 25.01 9.7 49.4 57 1.5 34.8
03:15 1018 30.06 847 25.01 9.7 49.4 58 1.8 35.3
03:20 1018 30.06 847 25.01 9.7 49.4 59 2 35.6
03:25 1018 30.06 847 25.01 9.6 49.3 60 2.2 36
03:30 1018 30.06 847 25.01 9.5 49.1 61 2.5 36.4
03:35 1018 30.06 847 25.01 9.3 48.7 62 2.5 36.5
03:40 1018 30.06 847 25.01 9.1 48.3 64 2.6 36.7
03:45 1018 30.06 847 25.01 8.9 47.9 65 2.7 36.8
03:50 1018 30.06 847 25.01 8.7 47.6 65 2.5 36.6
03:55 1018 30.06 847 25.01 8.7 47.6 64 2.2 35.9
04:00 1018 30.06 847 25.01 8.8 47.8 64 2.5 36.4
04:05 1018 30.06 847 25.01 8.7 47.7 65 2.5 36.6
04:10 1018 30.06 847 25.01 8.7 47.6 65 2.5 36.5
04:15 1018 30.06 847 25.01 8.7 47.6 64 2.2 36
04:20 1018 30.06 847 25.01 8.8 47.8 65 2.5 36.4
04:25 1018 30.06 847 25.01 8.8 47.8 64 2.4 36.3
04:30 1018 30.06 847 25.01 8.8 47.8 64 2.3 36.1
04:35 1018 30.06 847 25.01 8.8 47.8 64 2.5 36.5
04:40 1018 30.06 847 25.01 8.7 47.7 65 2.5 36.5
04:45 1018 30.06 847 25.01 8.7 47.7 64 2.3 36.2
04:50 1018 30.06 847 25.01 8.8 47.9 64 2.4 36.3
04:55 1018 30.06 847 25.01 8.9 48.1 63 2.3 36.1
05:00 1018 30.06 847 25.01 9.2 48.5 62 2.3 36.1
05:05 1018 30.06 847 25.01 9.3 48.7 61 2.2 36
05:10 1018 30.06 847 25.01 9.3 48.8 61 2.3 36.2
05:15 1018 30.06 847 25.01 9.3 48.8 62 2.4 36.3
05:20 1018 30.06 847 25.01 9.4 48.9 62 2.4 36.4
05:25 1018 30.06 847 25.01 9.4 48.9 62 2.5 36.4
05:30 1018 30.06 847 25.01 9.5 49 63 2.7 36.9
05:35 1018 30.06 847 25.01 9.5 49 62 2.6 36.7
05:40 1018 30.06 847 25.01 9.6 49.2 60 2.3 36.2
05:45 1018 30.06 847 25.01 9.7 49.4 61 2.5 36.6
05:50 1018 30.06 847 25.01 9.8 49.6 62 2.8 37.1
05:55 1018 30.06 848 25.04 9.9 49.7 62 3.1 37.5
06:00 1018 30.06 848 25.04 9.9 49.8 63 3.2 37.7
06:05 1018 30.06 848 25.04 9.8 49.6 62 2.8 37.1
06:10 1018 30.06 848 25.04 9.6 49.3 64 3.2 37.7
06:15 1018 30.06 848 25.04 9.7 49.4 63 3 37.5
06:20 1018 30.06 848 25.04 9.8 49.6 62 3 37.4
06:25 1018 30.06 848 25.04 9.9 49.7 63 3.1 37.6
06:30 1018 30.06 848 25.04 9.8 49.6 60 2.5 36.5
06:35 1018 30.06 848 25.04 9.8 49.7 62 3 37.4
06:40 1018 30.06 848 25.04 10 49.9 61 2.9 37.2
06:45 1018 30.06 848 25.04 10.1 50.2 61 3.1 37.5
06:50 1018 30.06 848 25.04 10.2 50.3 61 3.1 37.6
06:55 1018 30.06 848 25.04 10.2 50.4 60 2.8 37
07:00 1018 30.06 848 25.04 10.2 50.4 57 2.2 35.9
07:05 1018 30.06 848 25.04 10.5 50.8 58 2.5 36.4
07:10 1018 30.06 847 25.01 10.6 51.1 56 2.4 36.2
07:15 1018 30.06 847 25.01 10.8 51.5 56 2.5 36.5
07:20 1018 30.06 847 25.01 11 51.7 55 2.3 36.1
07:25 1018 30.06 847 25.01 11 51.8 54 2 35.6
07:30 1018 30.06 848 25.04 11 51.8 54 2.2 35.9
07:35 1018 30.06 848 25.04 11.1 52 54 2.2 35.9
07:40 1018 30.06 848 25.04 11.1 51.9 54 2.2 36
07:45 1018 30.06 848 25.04 11 51.8 55 2.4 36.4
07:50 1018 30.06 848 25.04 10.9 51.6 55 2.2 35.9
07:55 1018 30.06 848 25.04 11 51.9 55 2.3 36.2
08:00 1018 30.06 848 25.04 11.1 52 54 2.3 36.1
08:05 1018 30.06 848 25.04 11.1 52 54 2.2 35.9
08:10 1018 30.06 848 25.04 11.2 52.1 54 2.3 36.1
08:15 1018 30.06 848 25.04 11.2 52.1 54 2.3 36.2
08:20 1018 30.06 848 25.04 11.3 52.3 55 2.5 36.6
08:25 1018 30.06 848 25.04 11.5 52.7 53 2.4 36.3
08:30 1018 30.06 848 25.04 11.6 53 54 2.6 36.7
08:35 1018 30.06 848 25.04 11.7 53.1 53 2.4 36.4
08:40 1018 30.06 848 25.04 11.8 53.2 53 2.7 36.8
08:45 1018 30.06 848 25.04 11.9 53.4 53 2.6 36.6
08:50 1018 30.06 847 25.01 11.9 53.5 54 2.9 37.2
08:55 1018 30.06 847 25.01 12.2 54 52 2.7 36.9
09:00 1018 30.06 847 25.01 12.7 54.8 51 2.9 37.2
09:05 1018 30.06 847 25.01 12.5 54.4 53 3.1 37.6
09:10 1018 30.06 847 25.01 12.5 54.4 52 2.9 37.2
09:15 1018 30.06 847 25.01 12.5 54.5 53 3.3 37.9
09:20 1018 30.06 848 25.04 12.6 54.6 52 3.1 37.6
09:25 1018 30.06 848 25.04 12.5 54.4 53 3.3 37.9
09:30 1018 30.06 847 25.01 12.3 54.2 53 3.1 37.6
09:35 1018 30.06 847 25.01 12.4 54.3 54 3.4 38.1
09:40 1018 30.06 847 25.01 12.3 54.1 53 3.1 37.6
09:45 1018 30.06 847 25.01 12.4 54.3 52 3 37.3
09:50 1018 30.06 847 25.01 12.7 54.8 51 2.8 37.1
09:55 1018 30.06 847 25.01 12.4 54.4 54 3.3 38
10:00 1018 30.06 847 25.01 12.2 53.9 53 3.1 37.5
10:05 1018 30.06 847 25.01 12 53.6 55 3.3 37.9
10:10 1018 30.06 847 25.01 12.1 53.7 55 3.4 38
10:15 1018 30.06 847 25.01 12.6 54.7 55 3.9 39
10:20 1018 30.06 847 25.01 12.5 54.5 54 3.5 38.2
10:25 1018 30.06 847 25.01 12.9 55.3 53 3.8 38.8
10:30 1018 30.06 847 25.01 13.6 56.4 50 3.3 38
10:35 1018 30.06 847 25.01 13.8 56.8 49 3.4 38.1
10:40 1018 30.06 847 25.01 13.5 56.2 50 3.4 38.1
10:45 1018 30.06 847 25.01 12.9 55.2 51 3.2 37.7
10:50 1018 30.06 847 25.01 13.3 56 49 2.9 37.3
10:55 1018 30.06 847 25.01 13.9 57 49 3.3 37.9
11:00 1018 30.06 847 25.01 14.2 57.6 47 3.1 37.6
11:05 1018 30.06 847 25.01 14.9 58.7 46 3.5 38.3
11:10 1018 30.06 847 25.01 14.5 58 45 2.6 36.8
11:15 1018 30.06 847 25.01 14.5 58 47 3.4 38.1
11:20 1018 30.06 847 25.01 14.1 57.5 47 3.2 37.8
11:25 1018 30.06 847 25.01 14 57.3 47 3 37.5
11:30 1018 30.06 847 25.01 14.7 58.4 45 3 37.5
11:35 1018 30.06 847 25.01 14.8 58.7 44 2.9 37.3
11:40 1018 30.06 847 25.01 15.2 59.4 43 2.7 36.8
11:45 1018 30.06 847 25.01 15.9 60.6 40 2.4 36.3
11:50 1018 30.06 847 25.01 15.1 59.1 44 2.9 37.2
11:55 1018 30.06 847 25.01 15.1 59.2 43 2.8 37
12:00 1018 30.06 847 25.01 15.1 59.2 43 2.7 36.9
12:05 1017 30.03 847 25.01 15.2 59.4 42 2.4 36.4
12:10 1017 30.03 847 25.01 15.7 60.2 41 2.6 36.8
12:15 1017 30.03 847 25.01 16.6 62 38 2.5 36.6
12:20 1017 30.03 847 25.01 16.7 62 38 2.5 36.4
12:25 1017 30.03 847 25.01 17.7 63.9 36 2.6 36.6
12:30 1017 30.03 847 25.01 17.5 63.5 37 2.9 37.2
12:35 1017 30.03 847 25.01 16.9 62.5 40 3.4 38.2
12:40 1017 30.03 847 25.01 15.8 60.4 52 6.1 43
12:45 1018 30.06 847 25.01 13.1 55.6 65 6.7 44.1
12:50 1018 30.06 847 25.01 11.9 53.4 69 6.5 43.7
12:55 1018 30.06 847 25.01 11.9 53.3 70 6.6 43.8
13:00 1018 30.06 847 25.01 11.9 53.4 66 5.7 42.3
13:05 1017 30.03 847 25.01 11.9 53.3 63 5.2 41.4
13:10 1017 30.03 847 25.01 11.9 53.4 66 5.8 42.5
13:15 1017 30.03 847 25.01 12.4 54.3 61 5 41
13:20 1017 30.03 847 25.01 13.3 56 62 6.2 43.2
13:25 1017 30.03 846 24.98 13.6 56.4 50 3.5 38.2
13:30 1017 30.03 846 24.98 13.6 56.4 54 4.4 40
13:35 1017 30.03 846 24.98 14.3 57.7 51 4.3 39.8
13:40 1017 30.03 846 24.98 14.7 58.4 47 3.7 38.6
13:45 1017 30.03 846 24.98 15 59 48 4.2 39.5
13:50 1017 30.03 846 24.98 15.5 59.9 45 3.6 38.5
13:55 1017 30.03 846 24.98 15.3 59.5 47 4.1 39.4
14:00 1017 30.03 846 24.98 15 59 46 3.4 38.1
14:05 1017 30.03 846 24.98 15.3 59.5 46 3.8 38.9
14:10 1017 30.03 846 24.98 15.7 60.2 42 2.9 37.2
14:15 1017 30.03 846 24.98 16.7 62 38 2.5 36.4
14:20 1016 30 846 24.98 17.5 63.5 34 1.7 35.1
14:25 1016 30 846 24.98 17.8 64.1 32 1 33.8
14:30 1016 30 846 24.98 18.2 64.7 31 0.8 33.4
14:35 1016 30 846 24.98 17.6 63.7 35 2.1 35.7
14:40 1016 30 846 24.98 17.3 63.2 36 2.1 35.7
14:45 1016 30 846 24.98 17.3 63.2 34 1.6 34.9
14:50 1016 30 846 24.98 17.2 62.9 36 2.3 36.1
14:55 1016 30 846 24.98 17.2 63 36 2.2 35.9
15:00 1016 30 846 24.98 17.3 63.1 36 2.2 36
15:05 1016 30 846 24.98 17.3 63.1 37 2.7 36.8
15:10 1016 30 846 24.98 17.3 63.2 36 2.4 36.2
15:15 1016 30 846 24.98 17 62.5 39 3 37.5
15:20 1016 30 846 24.98 16.1 61 44 4 39.2
15:25 1016 30 846 24.98 15.3 59.5 46 4 39.1
15:30 1016 30 846 24.98 15 58.9 48 4.1 39.3
15:35 1016 30 846 24.98 14.8 58.6 48 3.9 39
15:40 1016 30 846 24.98 14.7 58.4 48 3.8 38.9
15:45 1016 30 846 24.98 14.8 58.7 46 3.3 38
15:50 1016 30 845 24.95 15.1 59.1 44 3 37.4
15:55 1016 30 845 24.95 15.3 59.5 44 3.1 37.5
16:00 1016 30 845 24.95 15.5 59.9 42 2.9 37.1
16:05 1016 30 845 24.95 15.7 60.3 41 2.6 36.7
16:10 1016 30 845 24.95 15.8 60.4 46 4.4 39.9
16:15 1016 30 845 24.95 15.3 59.5 47 4.3 39.7
16:20 1016 30 845 24.95 14.9 58.7 48 4.2 39.5
16:25 1016 30 845 24.95 14.8 58.6 48 3.9 39.1
16:30 1016 30 845 24.95 14.7 58.5 48 4.1 39.3
16:35 1016 30 845 24.95 14.5 58 49 4 39.3
16:40 1016 30 845 24.95 14.5 58 48 3.8 38.8
16:45 1016 30 845 24.95 14.4 57.9 48 3.6 38.5
16:50 1016 30 845 24.95 14.5 58 48 3.5 38.3
16:55 1016 30 845 24.95 14.8 58.6 46 3.4 38
17:00 1016 30 845 24.95 15.1 59.2 45 3.3 38
17:05 1016 30 845 24.95 15.1 59.3 45 3.4 38.1
17:10 1016 30 845 24.95 15.2 59.4 41 2.2 35.9
17:15 1016 30 845 24.95 15.5 60 37 1.2 34.1
17:20 1016 30 845 24.95 16.1 61 33 0.1 32.2
17:25 1016 30 845 24.95 16.2 61.2 33 -0 32
17:30 1016 30 845 24.95 16.2 61.2 34 0.5 32.9
17:35 1016 30 845 24.95 16.1 60.9 35 0.7 33.2
17:40 1016 30 845 24.95 15.8 60.5 36 1 33.7
17:45 1016 30 845 24.95 15.7 60.3 36 0.9 33.7
17:50 1016 30 845 24.95 15.6 60.1 38 1.3 34.3
17:55 1016 30 845 24.95 15.5 59.8 39 1.6 34.8
18:00 1016 30 845 24.95 15.3 59.5 42 2.7 36.8
18:05 1016 30 845 24.95 15 59.1 43 2.6 36.6
18:10 1016 30 845 24.95 14.9 58.8 43 2.4 36.3
18:15 1016 30 845 24.95 14.9 58.7 43 2.4 36.4
18:20 1016 30 845 24.95 14.9 58.8 43 2.5 36.4
18:25 1016 30 845 24.95 15 58.9 43 2.6 36.6
18:30 1016 30 845 24.95 14.9 58.8 44 2.9 37.2
18:35 1016 30 845 24.95 14.8 58.6 45 2.9 37.3
18:40 1016 30 845 24.95 14.6 58.3 44 2.6 36.8
18:45 1016 30 845 24.95 14.3 57.8 46 3 37.3
18:50 1016 30 845 24.95 14.2 57.6 47 3.2 37.7
18:55 1016 30 845 24.95 14.1 57.4 48 3.5 38.3
19:00 1016 30 845 24.95 14 57.2 49 3.7 38.6
19:05 1016 30 845 24.95 13.9 57 52 4.2 39.5
19:10 1016 30 845 24.95 13.7 56.6 54 4.5 40.1
19:15 1016 30 845 24.95 13.5 56.3 55 4.7 40.5
19:20 1016 30 845 24.95 13.3 55.9 55 4.6 40.3
19:25 1016 30 845 24.95 13.1 55.7 56 4.7 40.5
19:30 1016 30 845 24.95 13.1 55.6 57 4.9 40.9
19:35 1016 30 845 24.95 13 55.4 56 4.5 40.2
19:40 1016 30 845 24.95 13 55.4 57 4.6 40.3
19:45 1016 30 845 24.95 13 55.4 57 4.8 40.6
19:50 1016 30 845 24.95 12.9 55.2 58 4.9 40.8
19:55 1016 30 845 24.95 12.9 55.1 59 5.1 41.2
20:00 1016 30 845 24.95 12.7 54.9 59 4.9 40.8
20:05 1016 30 845 24.95 12.7 54.9 58 4.7 40.4
20:10 1016 30 845 24.95 12.7 54.9 59 5 41
20:15 1016 30 845 24.95 12.6 54.7 57 4.5 40
20:20 1016 30 845 24.95 12.5 54.6 58 4.7 40.4
20:25 1016 30 845 24.95 12.4 54.4 59 4.7 40.4
20:30 1016 30 845 24.95 12.3 54.1 59 4.7 40.4
20:35 1016 30 845 24.95 12.1 53.7 60 4.7 40.4
20:40 1016 30 845 24.95 11.7 53.1 62 4.8 40.6
20:45 1016 30 845 24.95 11.4 52.5 67 5.4 41.8
20:50 1016 30 845 24.95 10.9 51.7 67 5 41
20:55 1016 30 845 24.95 10.9 51.7 65 4.6 40.3
21:00 1016 30 845 24.95 10.9 51.6 66 4.9 40.8
21:05 1016 30 845 24.95 10.6 51.1 67 4.8 40.6
21:10 1016 30 845 24.95 10.5 50.8 67 4.6 40.3
21:15 1016 30 845 24.95 10.4 50.7 66 4.5 40
21:20 1016 30 845 24.95 10.4 50.6 66 4.4 39.9
21:25 1016 30 845 24.95 10.3 50.5 66 4.3 39.8
21:30 1016 30 845 24.95 10.1 50.2 67 4.3 39.8
21:35 1016 30 845 24.95 9.8 49.7 68 4.2 39.6
21:40 1016 30 845 24.95 9.5 49.1 69 4.1 39.4
21:45 1016 30 845 24.95 9.2 48.6 70 4 39.2
21:50 1016 30 845 24.95 9 48.1 71 3.9 39.1
21:55 1016 30 845 24.95 8.9 48 71 3.9 39.1
22:00 1016 30 845 24.95 8.8 47.9 71 3.9 39.1
22:05 1016 30 845 24.95 8.8 47.8 72 4 39.2
22:10 1016 30 845 24.95 8.6 47.5 71 3.8 38.8
22:15 1016 30 845 24.95 8.5 47.3 72 3.7 38.6
22:20 1016 30 845 24.95 8.5 47.3 72 3.7 38.6
22:25 1016 30 845 24.95 8.7 47.6 68 3 37.5
22:30 1016 30 845 24.95 9 48.1 66 3.1 37.5
22:35 1016 30 845 24.95 9 48.2 66 3.1 37.6
22:40 1016 30 845 24.95 9 48.2 66 3.1 37.5
22:45 1016 30 845 24.95 9 48.2 66 3 37.4
22:50 1016 30 845 24.95 9.1 48.4 65 2.9 37.2
22:55 1016 30 845 24.95 9.2 48.5 65 2.9 37.3
23:00 1016 30 845 24.95 9 48.2 65 2.8 37
23:05 1016 30 845 24.95 8.9 48 65 2.8 37
23:10 1016 30 845 24.95 8.6 47.5 68 3 37.4
23:15 1016 30 845 24.95 8.4 47.2 66 2.5 36.6
23:20 1016 30 845 24.95 8.7 47.6 65 2.5 36.5
23:25 1016 30 845 24.95 9 48.2 64 2.5 36.5
23:30 1016 30 845 24.95 9.1 48.5 63 2.5 36.5
23:35 1016 30 845 24.95 9.3 48.7 63 2.6 36.8
23:40 1016 30 845 24.95 9.2 48.6 64 2.9 37.1
23:45 1016 30 845 24.95 9.1 48.4 65 2.9 37.2
23:50 1016 30 846 24.98 9.1 48.5 65 2.9 37.1
23:55 1016 30 845 24.95 9.2 48.5 66 3.1 37.6
24:00 1016 30 845 24.95 9.3 48.7 65 3 37.5